sensor_id;sensor_type;location;lat;lon;timestamp;P1;P2;P0
62599;PMS7003;48671;48.922;2.346;2023-05-10T00:01:35;70.67;53.33;39.67
62599;PMS7003;48671;48.922;2.346;2023-05-10T00:04:01;78.67;59.33;50.67
62599;PMS7003;48671;48.922;2.346;2023-05-10T00:06:26;78.33;57.67;45.00
62599;PMS7003;48671;48.922;2.346;2023-05-10T00:08:52;86.67;68.67;60.00
62599;PMS7003;48671;48.922;2.346;2023-05-10T00:11:18;73.33;54.00;41.00
62599;PMS7003;48671;48.922;2.346;2023-05-10T00:13:46;99.00;84.00;74.33
62599;PMS7003;48671;48.922;2.346;2023-05-10T00:16:12;88.67;72.33;64.67
62599;PMS7003;48671;48.922;2.346;2023-05-10T00:18:38;75.75;56.75;43.00
62599;PMS7003;48671;48.922;2.346;2023-05-10T00:21:04;80.25;59.50;46.75
62599;PMS7003;48671;48.922;2.346;2023-05-10T00:23:29;92.00;76.50;63.25
62599;PMS7003;48671;48.922;2.346;2023-05-10T00:25:55;96.67;84.67;75.67
62599;PMS7003;48671;48.922;2.346;2023-05-10T00:28:21;111.00;98.33;87.67
62599;PMS7003;48671;48.922;2.346;2023-05-10T00:30:46;105.33;93.67;82.00
62599;PMS7003;48671;48.922;2.346;2023-05-10T00:33:11;87.67;79.67;71.00
62599;PMS7003;48671;48.922;2.346;2023-05-10T00:35:37;111.67;99.33;87.67
62599;PMS7003;48671;48.922;2.346;2023-05-10T00:38:03;88.67;72.00;60.67
62599;PMS7003;48671;48.922;2.346;2023-05-10T00:40:28;91.33;75.00;64.67
62599;PMS7003;48671;48.922;2.346;2023-05-10T00:42:55;85.75;65.50;54.00
62599;PMS7003;48671;48.922;2.346;2023-05-10T00:45:21;84.25;65.75;54.25
62599;PMS7003;48671;48.922;2.346;2023-05-10T00:47:46;81.00;60.25;48.25
62599;PMS7003;48671;48.922;2.346;2023-05-10T00:50:12;85.75;66.00;56.25
62599;PMS7003;48671;48.922;2.346;2023-05-10T00:52:39;75.25;54.25;39.25
62599;PMS7003;48671;48.922;2.346;2023-05-10T00:55:06;77.50;56.50;41.25
62599;PMS7003;48671;48.922;2.346;2023-05-10T00:57:31;74.20;53.80;39.80
62599;PMS7003;48671;48.922;2.346;2023-05-10T00:59:57;77.00;57.00;43.75
62599;PMS7003;48671;48.922;2.346;2023-05-10T01:02:24;78.20;56.60;42.20
62599;PMS7003;48671;48.922;2.346;2023-05-10T01:04:49;76.00;56.75;44.50
62599;PMS7003;48671;48.922;2.346;2023-05-10T01:07:15;80.50;60.00;51.25
62599;PMS7003;48671;48.922;2.346;2023-05-10T01:09:40;75.50;56.75;43.75
62599;PMS7003;48671;48.922;2.346;2023-05-10T01:12:06;73.50;54.50;41.50
62599;PMS7003;48671;48.922;2.346;2023-05-10T01:14:32;75.60;56.00;40.60
62599;PMS7003;48671;48.922;2.346;2023-05-10T01:16:59;74.20;54.60;40.20
62599;PMS7003;48671;48.922;2.346;2023-05-10T01:19:26;67.40;48.80;36.00
62599;PMS7003;48671;48.922;2.346;2023-05-10T01:33:42;72.25;52.00;39.25
62599;PMS7003;48671;48.922;2.346;2023-05-10T01:36:26;75.40;54.80;42.00
62599;PMS7003;48671;48.922;2.346;2023-05-10T01:43:59;84.00;62.00;53.80
62599;PMS7003;48671;48.922;2.346;2023-05-10T01:46:35;69.00;50.75;37.00
62599;PMS7003;48671;48.922;2.346;2023-05-10T01:49:02;72.60;53.40;39.20
62599;PMS7003;48671;48.922;2.346;2023-05-10T01:51:36;65.00;47.20;35.00
62599;PMS7003;48671;48.922;2.346;2023-05-10T01:54:09;73.25;54.00;40.50
62599;PMS7003;48671;48.922;2.346;2023-05-10T01:56:38;74.60;53.80;40.40
62599;PMS7003;48671;48.922;2.346;2023-05-10T01:59:08;74.20;54.00;41.00
62599;PMS7003;48671;48.922;2.346;2023-05-10T02:01:38;78.80;59.80;49.40
62599;PMS7003;48671;48.922;2.346;2023-05-10T02:04:06;73.50;54.00;39.25
62599;PMS7003;48671;48.922;2.346;2023-05-10T02:06:33;72.75;52.50;38.75
62599;PMS7003;48671;48.922;2.346;2023-05-10T02:09:00;75.00;55.60;40.20
62599;PMS7003;48671;48.922;2.346;2023-05-10T02:11:27;75.20;54.80;40.60
62599;PMS7003;48671;48.922;2.346;2023-05-10T02:13:54;76.40;55.60;41.40
62599;PMS7003;48671;48.922;2.346;2023-05-10T02:16:23;73.00;53.80;39.20
62599;PMS7003;48671;48.922;2.346;2023-05-10T02:18:51;72.40;50.80;36.40
62599;PMS7003;48671;48.922;2.346;2023-05-10T02:21:17;66.80;47.60;34.00
62599;PMS7003;48671;48.922;2.346;2023-05-10T02:23:45;75.60;55.80;41.00
62599;PMS7003;48671;48.922;2.346;2023-05-10T02:26:13;74.80;54.00;39.60
62599;PMS7003;48671;48.922;2.346;2023-05-10T02:28:40;81.00;60.20;47.40
62599;PMS7003;48671;48.922;2.346;2023-05-10T02:31:07;75.40;54.60;40.20
62599;PMS7003;48671;48.922;2.346;2023-05-10T02:33:34;75.20;55.00;41.00
62599;PMS7003;48671;48.922;2.346;2023-05-10T02:36:00;76.25;55.75;41.75
62599;PMS7003;48671;48.922;2.346;2023-05-10T02:38:27;75.40;55.00;41.60
62599;PMS7003;48671;48.922;2.346;2023-05-10T02:40:54;75.20;55.00;39.20
62599;PMS7003;48671;48.922;2.346;2023-05-10T02:43:21;73.00;54.00;39.50
62599;PMS7003;48671;48.922;2.346;2023-05-10T02:45:48;75.00;55.00;41.20
62599;PMS7003;48671;48.922;2.346;2023-05-10T02:48:14;73.00;54.00;39.00
62599;PMS7003;48671;48.922;2.346;2023-05-10T02:50:41;76.60;56.80;42.20
62599;PMS7003;48671;48.922;2.346;2023-05-10T02:53:10;74.20;54.00;40.80
62599;PMS7003;48671;48.922;2.346;2023-05-10T02:55:40;75.20;54.20;40.60
62599;PMS7003;48671;48.922;2.346;2023-05-10T02:58:07;69.60;49.80;37.20
62599;PMS7003;48671;48.922;2.346;2023-05-10T03:00:33;75.25;55.00;41.75
62599;PMS7003;48671;48.922;2.346;2023-05-10T03:02:58;71.25;51.75;38.00
62599;PMS7003;48671;48.922;2.346;2023-05-10T03:05:24;74.50;54.75;40.75
62599;PMS7003;48671;48.922;2.346;2023-05-10T03:07:49;65.75;47.00;34.00
62599;PMS7003;48671;48.922;2.346;2023-05-10T03:10:16;77.80;57.20;42.00
62599;PMS7003;48671;48.922;2.346;2023-05-10T03:15:51;77.00;56.25;41.25
62599;PMS7003;48671;48.922;2.346;2023-05-10T03:18:28;73.60;53.60;39.80
62599;PMS7003;48671;48.922;2.346;2023-05-10T03:20:59;73.20;53.20;40.00
62599;PMS7003;48671;48.922;2.346;2023-05-10T03:23:33;71.75;52.50;39.00
62599;PMS7003;48671;48.922;2.346;2023-05-10T03:26:00;75.00;55.00;41.20
62599;PMS7003;48671;48.922;2.346;2023-05-10T03:28:26;73.00;53.00;40.00
62599;PMS7003;48671;48.922;2.346;2023-05-10T03:30:53;70.40;51.80;37.20
62599;PMS7003;48671;48.922;2.346;2023-05-10T03:33:19;75.20;55.20;41.00
62599;PMS7003;48671;48.922;2.346;2023-05-10T03:35:45;73.75;53.50;40.00
62599;PMS7003;48671;48.922;2.346;2023-05-10T03:38:11;72.25;53.00;40.00
62599;PMS7003;48671;48.922;2.346;2023-05-10T03:40:37;75.00;54.40;40.80
62599;PMS7003;48671;48.922;2.346;2023-05-10T03:43:02;76.50;56.00;41.25
62599;PMS7003;48671;48.922;2.346;2023-05-10T03:45:27;73.25;52.75;38.00
62599;PMS7003;48671;48.922;2.346;2023-05-10T03:47:53;73.00;53.50;40.75
62599;PMS7003;48671;48.922;2.346;2023-05-10T03:50:19;70.00;52.25;39.00
62599;PMS7003;48671;48.922;2.346;2023-05-10T03:52:44;71.75;53.25;40.00
62599;PMS7003;48671;48.922;2.346;2023-05-10T03:55:10;76.00;56.75;42.00
62599;PMS7003;48671;48.922;2.346;2023-05-10T03:57:35;73.25;52.50;39.25
62599;PMS7003;48671;48.922;2.346;2023-05-10T04:00:01;75.25;55.25;42.00
62599;PMS7003;48671;48.922;2.346;2023-05-10T04:02:26;69.75;51.50;37.25
62599;PMS7003;48671;48.922;2.346;2023-05-10T04:04:52;70.50;52.50;39.25
62599;PMS7003;48671;48.922;2.346;2023-05-10T04:07:17;74.00;53.25;40.00
62599;PMS7003;48671;48.922;2.346;2023-05-10T04:09:43;75.00;54.75;41.25
62599;PMS7003;48671;48.922;2.346;2023-05-10T04:12:08;74.00;53.00;39.50
62599;PMS7003;48671;48.922;2.346;2023-05-10T04:14:34;77.25;56.00;41.75
62599;PMS7003;48671;48.922;2.346;2023-05-10T04:16:59;70.25;52.75;38.75
62599;PMS7003;48671;48.922;2.346;2023-05-10T04:19:28;74.50;54.50;40.75
62599;PMS7003;48671;48.922;2.346;2023-05-10T04:21:55;75.00;54.80;40.80
62599;PMS7003;48671;48.922;2.346;2023-05-10T04:24:20;75.25;54.25;40.75
62599;PMS7003;48671;48.922;2.346;2023-05-10T04:26:45;76.50;55.75;40.25
62599;PMS7003;48671;48.922;2.346;2023-05-10T04:29:11;76.00;55.75;40.00
62599;PMS7003;48671;48.922;2.346;2023-05-10T04:31:36;72.50;53.00;40.00
62599;PMS7003;48671;48.922;2.346;2023-05-10T04:34:01;61.25;43.25;30.50
62599;PMS7003;48671;48.922;2.346;2023-05-10T04:36:27;75.00;55.00;41.25
62599;PMS7003;48671;48.922;2.346;2023-05-10T04:38:52;74.00;54.50;40.25
62599;PMS7003;48671;48.922;2.346;2023-05-10T04:41:18;72.50;53.00;38.50
62599;PMS7003;48671;48.922;2.346;2023-05-10T04:43:43;74.00;53.25;40.00
62599;PMS7003;48671;48.922;2.346;2023-05-10T04:46:11;74.60;56.40;41.20
62599;PMS7003;48671;48.922;2.346;2023-05-10T04:48:36;70.00;52.00;39.00
62599;PMS7003;48671;48.922;2.346;2023-05-10T04:51:02;70.50;52.75;40.00
62599;PMS7003;48671;48.922;2.346;2023-05-10T04:53:28;69.60;52.00;39.00
62599;PMS7003;48671;48.922;2.346;2023-05-10T04:55:54;75.75;55.25;41.50
62599;PMS7003;48671;48.922;2.346;2023-05-10T04:58:19;81.50;60.50;49.50
62599;PMS7003;48671;48.922;2.346;2023-05-10T05:00:45;75.75;56.75;42.25
62599;PMS7003;48671;48.922;2.346;2023-05-10T05:03:10;70.00;51.25;38.00
62599;PMS7003;48671;48.922;2.346;2023-05-10T05:05:36;74.25;53.50;40.00
62599;PMS7003;48671;48.922;2.346;2023-05-10T05:08:01;72.50;53.00;38.75
62599;PMS7003;48671;48.922;2.346;2023-05-10T05:10:26;70.00;51.75;37.50
62599;PMS7003;48671;48.922;2.346;2023-05-10T05:12:52;77.25;56.00;41.50
62599;PMS7003;48671;48.922;2.346;2023-05-10T05:15:17;73.50;53.75;40.00
62599;PMS7003;48671;48.922;2.346;2023-05-10T05:17:43;80.75;59.50;47.25
62599;PMS7003;48671;48.922;2.346;2023-05-10T05:20:08;73.50;53.50;40.00
62599;PMS7003;48671;48.922;2.346;2023-05-10T05:22:35;69.60;52.00;38.20
62599;PMS7003;48671;48.922;2.346;2023-05-10T05:25:01;69.40;51.60;38.00
62599;PMS7003;48671;48.922;2.346;2023-05-10T05:27:28;73.20;53.00;38.60
62599;PMS7003;48671;48.922;2.346;2023-05-10T05:29:53;73.25;53.75;40.00
62599;PMS7003;48671;48.922;2.346;2023-05-10T05:32:19;73.25;53.25;40.00
62599;PMS7003;48671;48.922;2.346;2023-05-10T05:34:45;69.50;51.75;37.00
62599;PMS7003;48671;48.922;2.346;2023-05-10T05:37:19;75.40;55.40;41.20
62599;PMS7003;48671;48.922;2.346;2023-05-10T05:39:46;75.00;53.25;41.00
62599;PMS7003;48671;48.922;2.346;2023-05-10T05:42:14;75.50;55.00;41.00
62599;PMS7003;48671;48.922;2.346;2023-05-10T05:44:48;73.80;55.00;40.60
62599;PMS7003;48671;48.922;2.346;2023-05-10T05:47:13;69.25;52.00;38.00
62599;PMS7003;48671;48.922;2.346;2023-05-10T05:49:39;69.50;52.00;38.00
62599;PMS7003;48671;48.922;2.346;2023-05-10T05:52:04;73.50;55.00;40.00
62599;PMS7003;48671;48.922;2.346;2023-05-10T05:54:30;75.00;54.25;40.50
62599;PMS7003;48671;48.922;2.346;2023-05-10T05:56:59;77.20;58.00;42.20
62599;PMS7003;48671;48.922;2.346;2023-05-10T05:59:25;70.25;53.00;38.25
62599;PMS7003;48671;48.922;2.346;2023-05-10T06:01:52;70.40;58.40;46.60
62599;PMS7003;48671;48.922;2.346;2023-05-10T06:04:18;78.00;58.25;44.25
62599;PMS7003;48671;48.922;2.346;2023-05-10T06:06:43;70.25;50.75;37.25
62599;PMS7003;48671;48.922;2.346;2023-05-10T06:09:09;69.00;50.50;37.25
62599;PMS7003;48671;48.922;2.346;2023-05-10T06:11:34;73.50;53.25;38.00
62599;PMS7003;48671;48.922;2.346;2023-05-10T06:14:00;69.00;50.00;36.50
62599;PMS7003;48671;48.922;2.346;2023-05-10T06:16:26;73.40;53.60;39.60
62599;PMS7003;48671;48.922;2.346;2023-05-10T06:18:52;72.00;53.00;38.25
62599;PMS7003;48671;48.922;2.346;2023-05-10T06:21:17;71.50;53.00;37.25
62599;PMS7003;48671;48.922;2.346;2023-05-10T06:23:42;76.75;56.75;41.25
62599;PMS7003;48671;48.922;2.346;2023-05-10T06:26:08;75.20;55.60;39.80
62599;PMS7003;48671;48.922;2.346;2023-05-10T06:28:34;75.75;54.00;38.25
62599;PMS7003;48671;48.922;2.346;2023-05-10T06:31:00;72.00;53.00;37.00
62599;PMS7003;48671;48.922;2.346;2023-05-10T06:33:25;73.00;53.25;38.25
62599;PMS7003;48671;48.922;2.346;2023-05-10T06:35:51;66.75;49.00;33.50
62599;PMS7003;48671;48.922;2.346;2023-05-10T06:38:16;69.25;50.25;36.00
62599;PMS7003;48671;48.922;2.346;2023-05-10T06:40:42;73.25;53.25;39.00
62599;PMS7003;48671;48.922;2.346;2023-05-10T06:43:08;74.00;53.75;39.00
62599;PMS7003;48671;48.922;2.346;2023-05-10T06:45:33;85.25;63.25;50.75
62599;PMS7003;48671;48.922;2.346;2023-05-10T06:47:59;76.75;56.75;41.25
62599;PMS7003;48671;48.922;2.346;2023-05-10T06:50:24;69.50;50.00;36.00
62599;PMS7003;48671;48.922;2.346;2023-05-10T06:52:50;68.50;51.00;36.25
62599;PMS7003;48671;48.922;2.346;2023-05-10T06:55:15;69.50;52.50;37.25
62599;PMS7003;48671;48.922;2.346;2023-05-10T06:57:40;81.00;60.50;45.50
62599;PMS7003;48671;48.922;2.346;2023-05-10T07:00:06;70.75;53.25;37.00
62599;PMS7003;48671;48.922;2.346;2023-05-10T07:02:32;70.20;52.60;37.20
62599;PMS7003;48671;48.922;2.346;2023-05-10T07:04:58;64.50;47.50;34.00
62599;PMS7003;48671;48.922;2.346;2023-05-10T07:07:23;74.25;53.25;37.50
62599;PMS7003;48671;48.922;2.346;2023-05-10T07:09:48;70.00;52.00;36.00
62599;PMS7003;48671;48.922;2.346;2023-05-10T07:12:14;72.80;52.80;37.20
62599;PMS7003;48671;48.922;2.346;2023-05-10T07:14:40;70.25;50.25;36.00
62599;PMS7003;48671;48.922;2.346;2023-05-10T07:17:05;85.00;63.25;52.25
62599;PMS7003;48671;48.922;2.346;2023-05-10T07:19:30;73.25;53.00;38.00
62599;PMS7003;48671;48.922;2.346;2023-05-10T07:21:57;71.60;52.60;37.20
62599;PMS7003;48671;48.922;2.346;2023-05-10T07:24:23;66.25;46.00;32.25
62599;PMS7003;48671;48.922;2.346;2023-05-10T07:26:49;70.50;51.50;37.25
62599;PMS7003;48671;48.922;2.346;2023-05-10T07:29:14;73.50;53.00;37.75
62599;PMS7003;48671;48.922;2.346;2023-05-10T07:31:39;81.75;59.75;44.25
62599;PMS7003;48671;48.922;2.346;2023-05-10T07:34:06;69.20;51.00;36.20
62599;PMS7003;48671;48.922;2.346;2023-05-10T07:36:32;69.75;50.75;35.00
62599;PMS7003;48671;48.922;2.346;2023-05-10T07:38:57;73.00;53.25;37.25
62599;PMS7003;48671;48.922;2.346;2023-05-10T07:41:23;71.00;50.50;35.25
62599;PMS7003;48671;48.922;2.346;2023-05-10T07:43:48;70.00;50.75;36.00
62599;PMS7003;48671;48.922;2.346;2023-05-10T07:46:14;75.75;55.00;40.00
62599;PMS7003;48671;48.922;2.346;2023-05-10T07:48:39;73.00;52.75;37.25
62599;PMS7003;48671;48.922;2.346;2023-05-10T07:51:04;76.00;55.25;40.00
62599;PMS7003;48671;48.922;2.346;2023-05-10T07:53:32;81.40;60.40;45.80
62599;PMS7003;48671;48.922;2.346;2023-05-10T07:55:57;72.75;52.50;37.50
62599;PMS7003;48671;48.922;2.346;2023-05-10T07:58:23;43.00;21.40;16.80
62599;PMS7003;48671;48.922;2.346;2023-05-10T08:00:49;73.25;54.00;39.50
62599;PMS7003;48671;48.922;2.346;2023-05-10T08:03:14;75.75;56.25;41.25
62599;PMS7003;48671;48.922;2.346;2023-05-10T08:05:40;75.50;55.25;41.25
62599;PMS7003;48671;48.922;2.346;2023-05-10T08:08:05;69.25;50.25;36.00
62599;PMS7003;48671;48.922;2.346;2023-05-10T08:10:31;70.75;52.50;35.75
62599;PMS7003;48671;48.922;2.346;2023-05-10T08:12:56;71.50;52.75;37.50
62599;PMS7003;48671;48.922;2.346;2023-05-10T08:15:23;69.80;49.40;34.20
62599;PMS7003;48671;48.922;2.346;2023-05-10T08:17:48;72.50;52.75;36.75
62599;PMS7003;48671;48.922;2.346;2023-05-10T08:20:17;70.20;51.40;36.20
62599;PMS7003;48671;48.922;2.346;2023-05-10T08:22:44;71.60;51.20;35.00
62599;PMS7003;48671;48.922;2.346;2023-05-10T08:25:13;71.00;52.20;36.00
62599;PMS7003;48671;48.922;2.346;2023-05-10T08:27:39;71.60;53.00;36.00
62599;PMS7003;48671;48.922;2.346;2023-05-10T08:30:04;69.75;51.75;37.25
62599;PMS7003;48671;48.922;2.346;2023-05-10T08:32:30;76.40;57.80;40.40
62599;PMS7003;48671;48.922;2.346;2023-05-10T08:34:55;72.25;52.75;36.50
62599;PMS7003;48671;48.922;2.346;2023-05-10T08:37:22;73.25;54.25;38.25
62599;PMS7003;48671;48.922;2.346;2023-05-10T08:39:48;74.40;55.60;39.20
62599;PMS7003;48671;48.922;2.346;2023-05-10T08:42:13;69.75;50.25;35.00
62599;PMS7003;48671;48.922;2.346;2023-05-10T08:44:44;69.80;50.40;35.40
62599;PMS7003;48671;48.922;2.346;2023-05-10T08:47:13;72.00;52.20;36.00
62599;PMS7003;48671;48.922;2.346;2023-05-10T08:49:41;72.80;51.60;36.00
62599;PMS7003;48671;48.922;2.346;2023-05-10T08:52:09;70.80;53.00;37.60
62599;PMS7003;48671;48.922;2.346;2023-05-10T08:54:38;68.40;48.60;33.20
62599;PMS7003;48671;48.922;2.346;2023-05-10T08:57:03;68.50;50.00;35.50
62599;PMS7003;48671;48.922;2.346;2023-05-10T08:59:29;72.75;53.00;37.00
62599;PMS7003;48671;48.922;2.346;2023-05-10T09:01:55;72.00;51.50;34.75
62599;PMS7003;48671;48.922;2.346;2023-05-10T09:04:23;76.60;56.00;39.20
62599;PMS7003;48671;48.922;2.346;2023-05-10T09:06:49;73.00;54.00;38.50
62599;PMS7003;48671;48.922;2.346;2023-05-10T09:09:14;71.50;52.00;36.00
62599;PMS7003;48671;48.922;2.346;2023-05-10T09:11:41;68.80;51.20;36.80
62599;PMS7003;48671;48.922;2.346;2023-05-10T09:14:06;66.75;50.00;34.25
62599;PMS7003;48671;48.922;2.346;2023-05-10T09:16:32;72.25;52.50;36.25
62599;PMS7003;48671;48.922;2.346;2023-05-10T09:18:57;68.75;51.00;37.00
62599;PMS7003;48671;48.922;2.346;2023-05-10T09:21:22;71.75;52.75;38.75
62599;PMS7003;48671;48.922;2.346;2023-05-10T09:23:48;74.00;55.00;40.25
62599;PMS7003;48671;48.922;2.346;2023-05-10T09:26:15;69.60;52.20;36.60
62599;PMS7003;48671;48.922;2.346;2023-05-10T09:28:54;68.20;50.20;33.40
62599;PMS7003;48671;48.922;2.346;2023-05-10T09:31:21;68.40;49.40;34.40
62599;PMS7003;48671;48.922;2.346;2023-05-10T09:33:46;71.00;50.25;36.75
62599;PMS7003;48671;48.922;2.346;2023-05-10T09:36:13;68.00;50.75;36.00
62599;PMS7003;48671;48.922;2.346;2023-05-10T09:38:48;70.75;52.25;37.75
62599;PMS7003;48671;48.922;2.346;2023-05-10T09:41:22;74.75;54.25;38.00
62599;PMS7003;48671;48.922;2.346;2023-05-10T09:43:49;75.00;56.00;41.25
62599;PMS7003;48671;48.922;2.346;2023-05-10T09:46:15;70.75;51.25;37.25
62599;PMS7003;48671;48.922;2.346;2023-05-10T09:48:42;69.00;50.25;34.25
62599;PMS7003;48671;48.922;2.346;2023-05-10T09:51:09;74.50;54.75;40.25
62599;PMS7003;48671;48.922;2.346;2023-05-10T09:53:35;75.50;55.75;40.75
62599;PMS7003;48671;48.922;2.346;2023-05-10T09:56:00;74.50;55.25;40.50
62599;PMS7003;48671;48.922;2.346;2023-05-10T09:58:29;75.25;54.25;40.00
62599;PMS7003;48671;48.922;2.346;2023-05-10T10:00:54;72.75;54.25;39.75
62599;PMS7003;48671;48.922;2.346;2023-05-10T10:03:20;79.50;59.00;44.25
62599;PMS7003;48671;48.922;2.346;2023-05-10T10:05:46;75.25;56.00;40.75
62599;PMS7003;48671;48.922;2.346;2023-05-10T10:08:13;78.00;57.60;42.00
62599;PMS7003;48671;48.922;2.346;2023-05-10T10:10:39;77.25;56.50;42.50
62599;PMS7003;48671;48.922;2.346;2023-05-10T10:13:06;82.25;59.00;43.25
62599;PMS7003;48671;48.922;2.346;2023-05-10T10:15:32;82.00;62.00;50.25
62599;PMS7003;48671;48.922;2.346;2023-05-10T10:17:58;90.00;70.75;59.25
62599;PMS7003;48671;48.922;2.346;2023-05-10T10:20:25;81.75;59.00;44.25
62599;PMS7003;48671;48.922;2.346;2023-05-10T10:22:51;85.25;67.50;55.00
62599;PMS7003;48671;48.922;2.346;2023-05-10T10:25:17;92.25;79.25;65.75
62599;PMS7003;48671;48.922;2.346;2023-05-10T10:30:29;101.67;86.67;75.67
62599;PMS7003;48671;48.922;2.346;2023-05-10T10:36:03;120.33;104.33;91.67
62599;PMS7003;48671;48.922;2.346;2023-05-10T10:39:07;93.33;85.67;74.33
62599;PMS7003;48671;48.922;2.346;2023-05-10T10:41:31;85.33;67.33;51.33
62599;PMS7003;48671;48.922;2.346;2023-05-10T10:50:22;65.20;47.00;30.80
62599;PMS7003;48671;48.922;2.346;2023-05-10T10:57:43;80.80;59.20;42.20
62599;PMS7003;48671;48.922;2.346;2023-05-10T11:00:32;68.00;49.20;32.60
62599;PMS7003;48671;48.922;2.346;2023-05-10T11:03:12;65.00;44.00;26.80
62599;PMS7003;48671;48.922;2.346;2023-05-10T11:05:46;72.40;51.40;36.00
62599;PMS7003;48671;48.922;2.346;2023-05-10T11:08:30;80.80;59.20;42.40
62599;PMS7003;48671;48.922;2.346;2023-05-10T11:13:29;76.40;55.40;37.20
62599;PMS7003;48671;48.922;2.346;2023-05-10T11:15:59;72.60;53.20;38.60
62599;PMS7003;48671;48.922;2.346;2023-05-10T11:18:38;73.40;52.20;37.00
62599;PMS7003;48671;48.922;2.346;2023-05-10T11:21:04;73.25;53.00;36.25
62599;PMS7003;48671;48.922;2.346;2023-05-10T11:23:33;72.40;52.40;38.20
62599;PMS7003;48671;48.922;2.346;2023-05-10T11:26:12;75.00;53.20;38.20
62599;PMS7003;48671;48.922;2.346;2023-05-10T11:28:41;71.50;52.00;38.00
62599;PMS7003;48671;48.922;2.346;2023-05-10T11:31:07;75.80;55.40;41.00
62599;PMS7003;48671;48.922;2.346;2023-05-10T11:33:45;73.75;53.50;38.00
62599;PMS7003;48671;48.922;2.346;2023-05-10T11:36:16;72.20;52.60;38.20
62599;PMS7003;48671;48.922;2.346;2023-05-10T11:38:42;74.40;54.40;39.00
62599;PMS7003;48671;48.922;2.346;2023-05-10T11:41:09;69.00;50.75;36.50
62599;PMS7003;48671;48.922;2.346;2023-05-10T11:43:36;77.00;55.80;42.00
62599;PMS7003;48671;48.922;2.346;2023-05-10T11:46:03;74.20;54.40;39.20
62599;PMS7003;48671;48.922;2.346;2023-05-10T11:48:33;79.40;58.40;46.20
62599;PMS7003;48671;48.922;2.346;2023-05-10T11:50:58;63.00;52.50;37.75
62599;PMS7003;48671;48.922;2.346;2023-05-10T11:53:25;75.00;54.40;38.00
62599;PMS7003;48671;48.922;2.346;2023-05-10T11:55:52;74.20;54.00;38.20
62599;PMS7003;48671;48.922;2.346;2023-05-10T11:58:17;78.50;56.50;40.75
62599;PMS7003;48671;48.922;2.346;2023-05-10T12:00:43;80.20;59.00;45.00
62599;PMS7003;48671;48.922;2.346;2023-05-10T12:03:10;78.20;57.20;42.80
62599;PMS7003;48671;48.922;2.346;2023-05-10T12:05:36;73.50;54.00;36.25
62599;PMS7003;48671;48.922;2.346;2023-05-10T12:08:14;77.60;57.20;38.40
62599;PMS7003;48671;48.922;2.346;2023-05-10T12:10:40;73.60;54.20;36.00
62599;PMS7003;48671;48.922;2.346;2023-05-10T12:13:13;79.40;58.60;40.20
62599;PMS7003;48671;48.922;2.346;2023-05-10T12:15:40;83.00;64.40;47.60
62599;PMS7003;48671;48.922;2.346;2023-05-10T12:18:07;77.80;56.60;36.40
62599;PMS7003;48671;48.922;2.346;2023-05-10T12:20:37;75.60;56.00;41.40
62599;PMS7003;48671;48.922;2.346;2023-05-10T12:23:03;78.25;55.50;37.75
62599;PMS7003;48671;48.922;2.346;2023-05-10T12:25:32;75.00;61.80;47.60
62599;PMS7003;48671;48.922;2.346;2023-05-10T12:27:58;73.80;54.60;39.20
62599;PMS7003;48671;48.922;2.346;2023-05-10T12:30:29;80.20;59.20;42.60
62599;PMS7003;48671;48.922;2.346;2023-05-10T12:33:17;76.80;57.00;38.80
62599;PMS7003;48671;48.922;2.346;2023-05-10T12:38:25;79.20;59.20;39.40
62599;PMS7003;48671;48.922;2.346;2023-05-10T12:41:03;75.80;56.20;41.00
62599;PMS7003;48671;48.922;2.346;2023-05-10T12:43:29;79.80;58.80;38.00
62599;PMS7003;48671;48.922;2.346;2023-05-10T12:45:55;80.75;60.00;41.50
62599;PMS7003;48671;48.922;2.346;2023-05-10T12:48:21;81.00;60.50;39.00
62599;PMS7003;48671;48.922;2.346;2023-05-10T12:50:47;76.00;55.75;36.25
62599;PMS7003;48671;48.922;2.346;2023-05-10T12:53:15;77.00;57.00;39.50
62599;PMS7003;48671;48.922;2.346;2023-05-10T12:55:42;77.20;56.20;40.60
62599;PMS7003;48671;48.922;2.346;2023-05-10T12:58:07;77.20;57.20;42.00
62599;PMS7003;48671;48.922;2.346;2023-05-10T13:00:33;79.75;55.75;40.75
62599;PMS7003;48671;48.922;2.346;2023-05-10T13:02:58;79.25;57.75;40.50
62599;PMS7003;48671;48.922;2.346;2023-05-10T13:05:23;81.00;60.75;42.75
62599;PMS7003;48671;48.922;2.346;2023-05-10T13:07:48;77.75;58.00;39.50
62599;PMS7003;48671;48.922;2.346;2023-05-10T13:10:14;72.75;52.75;37.00
62599;PMS7003;48671;48.922;2.346;2023-05-10T13:12:39;74.00;54.25;38.25
62599;PMS7003;48671;48.922;2.346;2023-05-10T13:15:05;76.00;56.00;40.00
62599;PMS7003;48671;48.922;2.346;2023-05-10T13:17:31;73.80;54.60;39.80
62599;PMS7003;48671;48.922;2.346;2023-05-10T13:19:56;77.00;57.50;43.50
62599;PMS7003;48671;48.922;2.346;2023-05-10T13:22:22;68.50;50.50;36.00
62599;PMS7003;48671;48.922;2.346;2023-05-10T13:24:47;70.75;52.00;38.25
62599;PMS7003;48671;48.922;2.346;2023-05-10T13:27:12;77.00;57.25;42.25
62599;PMS7003;48671;48.922;2.346;2023-05-10T13:29:39;71.50;52.00;39.00
62599;PMS7003;48671;48.922;2.346;2023-05-10T13:32:06;73.60;54.60;43.20
62599;PMS7003;48671;48.922;2.346;2023-05-10T13:34:31;75.60;56.00;44.80
62599;PMS7003;48671;48.922;2.346;2023-05-10T13:36:57;71.75;53.25;41.00
62599;PMS7003;48671;48.922;2.346;2023-05-10T13:39:22;71.50;52.25;39.00
62599;PMS7003;48671;48.922;2.346;2023-05-10T13:41:48;71.25;52.75;40.00
62599;PMS7003;48671;48.922;2.346;2023-05-10T13:44:14;71.00;52.75;40.25
62599;PMS7003;48671;48.922;2.346;2023-05-10T13:46:40;71.20;51.60;38.20
62599;PMS7003;48671;48.922;2.346;2023-05-10T13:49:08;71.80;53.40;39.20
62599;PMS7003;48671;48.922;2.346;2023-05-10T13:51:39;67.80;49.00;33.40
62599;PMS7003;48671;48.922;2.346;2023-05-10T13:54:04;64.25;47.75;33.75
62599;PMS7003;48671;48.922;2.346;2023-05-10T13:56:30;72.50;53.75;38.00
62599;PMS7003;48671;48.922;2.346;2023-05-10T13:58:56;73.00;54.25;40.25
62599;PMS7003;48671;48.922;2.346;2023-05-10T14:01:22;74.20;54.80;42.20
62599;PMS7003;48671;48.922;2.346;2023-05-10T14:03:48;76.25;55.25;40.00
62599;PMS7003;48671;48.922;2.346;2023-05-10T14:06:13;71.00;51.00;36.25
62599;PMS7003;48671;48.922;2.346;2023-05-10T14:08:38;75.25;55.00;42.50
62599;PMS7003;48671;48.922;2.346;2023-05-10T14:11:04;73.25;53.25;39.75
62599;PMS7003;48671;48.922;2.346;2023-05-10T14:13:29;74.75;54.25;40.00
62599;PMS7003;48671;48.922;2.346;2023-05-10T14:15:54;72.00;53.50;40.50
62599;PMS7003;48671;48.922;2.346;2023-05-10T14:18:20;67.25;50.00;37.25
62599;PMS7003;48671;48.922;2.346;2023-05-10T14:20:45;71.75;52.50;39.75
62599;PMS7003;48671;48.922;2.346;2023-05-10T14:23:11;73.25;53.50;41.50
62599;PMS7003;48671;48.922;2.346;2023-05-10T14:25:37;73.25;55.25;42.50
62599;PMS7003;48671;48.922;2.346;2023-05-10T14:28:03;76.00;55.80;43.20